createdAt,value
2023-05-13T00:22:20.834Z,4.63
2023-05-13T00:52:23.830Z,4.95
2023-05-13T01:22:26.750Z,5.18
2023-05-13T01:52:29.816Z,4.80
2023-05-13T02:22:33.124Z,4.38
2023-05-13T02:52:36.259Z,4.65
2023-05-13T03:22:39.244Z,4.78
2023-05-13T03:52:42.849Z,4.70
2023-05-13T04:22:48.642Z,4.70
2023-05-13T04:52:51.634Z,4.60
2023-05-13T05:22:54.619Z,4.03
2023-05-13T05:52:57.539Z,4.60
2023-05-13T06:23:01.433Z,4.90
2023-05-13T06:53:04.858Z,4.88
2023-05-13T07:23:11.348Z,4.82
2023-05-13T07:53:15.725Z,4.60
2023-05-13T08:23:19.610Z,4.05
2023-05-13T08:53:22.824Z,2.90
2023-05-13T09:23:26.928Z,2.50
2023-05-13T09:53:31.339Z,2.10
2023-05-13T10:23:34.619Z,2.58
2023-05-13T10:53:44.221Z,2.90
2023-05-13T11:23:56.926Z,3.00
2023-05-13T11:54:05.962Z,2.50
2023-05-13T12:24:19.295Z,2.67
2023-05-13T12:54:22.284Z,3.08
2023-05-13T13:24:25.339Z,2.40
2023-05-13T13:54:28.407Z,2.03
2023-05-13T14:24:31.468Z,2.00
2023-05-13T14:54:35.021Z,1.80
2023-05-13T15:24:38.099Z,2.50
2023-05-13T15:54:41.160Z,2.20
2023-05-13T16:24:44.095Z,2.03
2023-05-13T16:54:47.091Z,2.20
2023-05-13T17:24:50.217Z,2.58
2023-05-13T17:54:54.400Z,2.75
2023-05-13T18:24:57.335Z,3.70
2023-05-13T18:55:03.200Z,3.30
2023-05-13T19:25:06.761Z,4.13
2023-05-13T19:55:10.339Z,3.90
2023-05-13T20:25:13.478Z,6.22
2023-05-13T20:55:16.475Z,4.72
2023-05-13T21:25:19.425Z,4.15
2023-05-13T21:55:22.851Z,4.22
2023-05-13T22:25:25.824Z,4.30
2023-05-13T22:55:28.760Z,4.82
2023-05-13T23:25:31.818Z,4.95
2023-05-13T23:55:34.891Z,4.53
